Sds Wind — ICZW — position and weather

sailwx.info

Track history (hours):
 
Tides and Currents Weather Stations Pressure Air Temp Water Temp Dewpoint Dewpoint Depression Visibility Wind Speed Wind Dir Waves Ship Positions

Sds Wind

Last reported at 2018-Jun-16 11:24 UTC. Time now 2018-Jun-19 01:21 UTC.
Position N 37°00' W 007°55'.

Length 108 m; draft 4.7 m.

Type: Cargo ship. MMSI: 247182200.

Date/timePositionNaut miles runAvg speedWind from/ knotsBaromVisibWave heightAir tempDewpointWater temp
2018-Jun-16 11:24N 37°00' W 007°55'2 5.0
2018-Jun-16 11:00N 36°59' W 007°53'2 0.2
2018-Jun-15 23:22N 36°57' W 007°51'0 0.1
2018-Jun-15 22:46N 36°57' W 007°51'0 0.1
2018-Jun-15 22:22N 36°57' W 007°51'0 0.0
2018-Jun-15 16:46N 36°57' W 007°51'0 0.0
2018-Jun-15 16:22N 36°57' W 007°51'0 0.0
2018-Jun-15 15:22N 36°57' W 007°51'12410.5
2018-Jun-15 03:32N 35°58' W 005°36'010.7
2018-Jun-15 03:30N 35°58' W 005°35'510.5
2018-Jun-15 03:00N 35°59' W 005°29'5 9.9
2018-Jun-15 02:30N 36°00' W 005°23'5 9.2
2018-Jun-15 02:00N 36°02' W 005°18'4 8.4
2018-Jun-15 01:30N 36°03' W 005°13'4 8.3
2018-Jun-15 00:59N 36°03' W 005°07'6 9.2
2018-Jun-15 00:21N 36°05' W 005°00'20210.8
2018-Jun-14 05:42N 37°13' W 001°04'312.3
2018-Jun-14 05:29N 37°15' W 001°02'612.1
2018-Jun-14 05:00N 37°19' W 000°56'612.0
2018-Jun-14 04:30N 37°23' W 000°50'612.1
2018-Jun-14 04:00N 37°27' W 000°45'611.8
2018-Jun-14 03:30N 37°31' W 000°39'612.2
2018-Jun-14 03:00N 37°35' W 000°33'611.9
2018-Jun-14 02:30N 37°40' W 000°29'611.7
2018-Jun-14 02:00N 37°45' W 000°25'611.8
2018-Jun-14 01:30N 37°50' W 000°21'711.9
2018-Jun-14 00:56N 37°55' W 000°17'512.0
2018-Jun-14 00:30N 37°60' W 000°13'612.4
2018-Jun-14 00:00N 38°05' W 000°08'60 1.3
2018-Jun-12 00:54N 38°55' E 000°32'510.8
2018-Jun-12 00:27N 38°51' E 000°31'1110.8
2018-Jun-11 23:24N 38°40' E 000°26'611.1
2018-Jun-11 22:53N 38°35' E 000°22'410.6
2018-Jun-11 22:29N 38°32' E 000°19'3311.1
2018-Jun-11 19:28N 38°04' W 000°05'511.3
2018-Jun-11 19:00N 38°00' W 000°09'611.2
2018-Jun-11 18:30N 37°55' W 000°13'611.2
2018-Jun-11 18:00N 37°51' W 000°17'611.1
2018-Jun-11 17:30N 37°46' W 000°21'611.2
2018-Jun-11 17:00N 37°41' W 000°24'611.2
2018-Jun-11 16:30N 37°36' W 000°28'611.7
2018-Jun-11 16:00N 37°32' W 000°33'611.3
2018-Jun-11 15:30N 37°32' W 000°40'611.6
2018-Jun-11 15:00N 37°32' W 000°48'611.7
2018-Jun-11 14:30N 37°32' W 000°55'3 5.8
2018-Jun-11 13:56N 37°34' W 000°58'0 0.0
2018-Jun-10 14:37N 37°34' W 000°58'1 2.5
2018-Jun-10 14:21N 37°34' W 000°59'7 8.3
2018-Jun-10 13:30N 37°31' W 000°51'510.5
2018-Jun-10 13:00N 37°31' W 000°44'611.0
2018-Jun-10 12:30N 37°30' W 000°37'510.8
2018-Jun-10 12:00N 37°30' W 000°31'511.0
2018-Jun-10 11:30N 37°31' W 000°24'611.4
2018-Jun-10 11:00N 37°32' W 000°16'19011.4
2018-Jun-09 18:23N 38°05' E 003°40'512.3
2018-Jun-09 18:00N 38°06' E 003°46'612.1
2018-Jun-09 17:30N 38°07' E 003°54'611.7
2018-Jun-09 17:00N 38°08' E 004°01'811.6
2018-Jun-09 16:18N 38°09' E 004°11'411.4
2018-Jun-09 16:00N 38°10' E 004°15'611.7
2018-Jun-09 15:29N 38°11' E 004°23'1211.8
2018-Jun-09 14:30N 38°13' E 004°37'45911.2
2018-Jun-07 21:27N 40°25' E 014°06'612.1
2018-Jun-07 20:58N 40°27' E 014°13'612.2
2018-Jun-07 20:30N 40°29' E 014°20'612.1
2018-Jun-07 20:00N 40°31' E 014°28'612.2
2018-Jun-07 19:30N 40°34' E 014°35'3 0.2
2018-Jun-07 03:44N 40°35' E 014°38'0 1.6
2018-Jun-07 03:30N 40°35' E 014°38'5 9.4
2018-Jun-07 03:00N 40°34' E 014°32'510.5
2018-Jun-07 02:30N 40°33' E 014°25'510.4
2018-Jun-07 02:00N 40°31' E 014°18'510.0
2018-Jun-07 01:30N 40°30' E 014°12'510.2
2018-Jun-07 01:00N 40°32' E 014°06'510.6
2018-Jun-07 00:30N 40°35' E 013°60'510.4
2018-Jun-07 00:00N 40°38' E 013°54'5 9.4
2018-Jun-06 23:30N 40°35' E 013°59'1 1.1
2018-Jun-06 23:00N 40°35' E 013°60'510.8
2018-Jun-06 22:30N 40°38' E 013°54'611.1
2018-Jun-06 22:00N 40°40' E 013°47'511.0
2018-Jun-06 21:30N 40°43' E 013°41'610.9
2018-Jun-06 21:00N 40°47' E 013°36'  
Track history (hours):
 
Tides and Currents Weather Stations Pressure Air Temp Water Temp Dewpoint Dewpoint Depression Visibility Wind Speed Wind Dir Waves Ship Positions

Sds Wind

Last reported at 2018-Jun-16 11:24 UTC. Time now 2018-Jun-19 01:21 UTC.
Position N 37°00' W 007°55'.

Length 108 m; draft 4.7 m.

Type: Cargo ship. MMSI: 247182200.

Date/timePositionNaut miles runAvg speedWind from/ knotsBaromVisibWave heightAir tempDewpointWater temp
2018-Jun-16 11:24N 37°00' W 007°55'2 5.0
2018-Jun-16 11:00N 36°59' W 007°53'2 0.2
2018-Jun-15 23:22N 36°57' W 007°51'0 0.1
2018-Jun-15 22:46N 36°57' W 007°51'0 0.1
2018-Jun-15 22:22N 36°57' W 007°51'0 0.0
2018-Jun-15 16:46N 36°57' W 007°51'0 0.0
2018-Jun-15 16:22N 36°57' W 007°51'0 0.0
2018-Jun-15 15:22N 36°57' W 007°51'12410.5
2018-Jun-15 03:32N 35°58' W 005°36'010.7
2018-Jun-15 03:30N 35°58' W 005°35'510.5
2018-Jun-15 03:00N 35°59' W 005°29'5 9.9
2018-Jun-15 02:30N 36°00' W 005°23'5 9.2
2018-Jun-15 02:00N 36°02' W 005°18'4 8.4
2018-Jun-15 01:30N 36°03' W 005°13'4 8.3
2018-Jun-15 00:59N 36°03' W 005°07'6 9.2
2018-Jun-15 00:21N 36°05' W 005°00'20210.8
2018-Jun-14 05:42N 37°13' W 001°04'312.3
2018-Jun-14 05:29N 37°15' W 001°02'612.1
2018-Jun-14 05:00N 37°19' W 000°56'612.0
2018-Jun-14 04:30N 37°23' W 000°50'612.1
2018-Jun-14 04:00N 37°27' W 000°45'611.8
2018-Jun-14 03:30N 37°31' W 000°39'612.2
2018-Jun-14 03:00N 37°35' W 000°33'611.9
2018-Jun-14 02:30N 37°40' W 000°29'611.7
2018-Jun-14 02:00N 37°45' W 000°25'611.8
2018-Jun-14 01:30N 37°50' W 000°21'711.9
2018-Jun-14 00:56N 37°55' W 000°17'512.0
2018-Jun-14 00:30N 37°60' W 000°13'612.4
2018-Jun-14 00:00N 38°05' W 000°08'60 1.3
2018-Jun-12 00:54N 38°55' E 000°32'510.8
2018-Jun-12 00:27N 38°51' E 000°31'1110.8
2018-Jun-11 23:24N 38°40' E 000°26'611.1
2018-Jun-11 22:53N 38°35' E 000°22'410.6
2018-Jun-11 22:29N 38°32' E 000°19'3311.1
2018-Jun-11 19:28N 38°04' W 000°05'511.3
2018-Jun-11 19:00N 38°00' W 000°09'611.2
2018-Jun-11 18:30N 37°55' W 000°13'611.2
2018-Jun-11 18:00N 37°51' W 000°17'611.1
2018-Jun-11 17:30N 37°46' W 000°21'611.2
2018-Jun-11 17:00N 37°41' W 000°24'611.2
2018-Jun-11 16:30N 37°36' W 000°28'611.7
2018-Jun-11 16:00N 37°32' W 000°33'611.3
2018-Jun-11 15:30N 37°32' W 000°40'611.6
2018-Jun-11 15:00N 37°32' W 000°48'611.7
2018-Jun-11 14:30N 37°32' W 000°55'3 5.8
2018-Jun-11 13:56N 37°34' W 000°58'0 0.0
2018-Jun-10 14:37N 37°34' W 000°58'1 2.5
2018-Jun-10 14:21N 37°34' W 000°59'7 8.3
2018-Jun-10 13:30N 37°31' W 000°51'510.5
2018-Jun-10 13:00N 37°31' W 000°44'611.0
2018-Jun-10 12:30N 37°30' W 000°37'510.8
2018-Jun-10 12:00N 37°30' W 000°31'511.0
2018-Jun-10 11:30N 37°31' W 000°24'611.4
2018-Jun-10 11:00N 37°32' W 000°16'19011.4
2018-Jun-09 18:23N 38°05' E 003°40'512.3
2018-Jun-09 18:00N 38°06' E 003°46'612.1
2018-Jun-09 17:30N 38°07' E 003°54'611.7
2018-Jun-09 17:00N 38°08' E 004°01'811.6
2018-Jun-09 16:18N 38°09' E 004°11'411.4
2018-Jun-09 16:00N 38°10' E 004°15'611.7
2018-Jun-09 15:29N 38°11' E 004°23'1211.8
2018-Jun-09 14:30N 38°13' E 004°37'45911.2
2018-Jun-07 21:27N 40°25' E 014°06'612.1
2018-Jun-07 20:58N 40°27' E 014°13'612.2
2018-Jun-07 20:30N 40°29' E 014°20'612.1
2018-Jun-07 20:00N 40°31' E 014°28'612.2
2018-Jun-07 19:30N 40°34' E 014°35'3 0.2
2018-Jun-07 03:44N 40°35' E 014°38'0 1.6
2018-Jun-07 03:30N 40°35' E 014°38'5 9.4
2018-Jun-07 03:00N 40°34' E 014°32'510.5
2018-Jun-07 02:30N 40°33' E 014°25'510.4
2018-Jun-07 02:00N 40°31' E 014°18'510.0
2018-Jun-07 01:30N 40°30' E 014°12'510.2
2018-Jun-07 01:00N 40°32' E 014°06'510.6
2018-Jun-07 00:30N 40°35' E 013°60'510.4
2018-Jun-07 00:00N 40°38' E 013°54'5 9.4
2018-Jun-06 23:30N 40°35' E 013°59'1 1.1
2018-Jun-06 23:00N 40°35' E 013°60'510.8
2018-Jun-06 22:30N 40°38' E 013°54'611.1
2018-Jun-06 22:00N 40°40' E 013°47'511.0
2018-Jun-06 21:30N 40°43' E 013°41'610.9
2018-Jun-06 21:00N 40°47' E 013°36'  

Dump ship's entire track history